createdAt,value
2017-12-22T00:02:16.335Z,-0.58
2017-12-22T00:04:42.691Z,-0.26
2017-12-22T00:07:09.058Z,-0.38
2017-12-22T00:09:35.433Z,-0.65
2017-12-22T00:12:01.781Z,-0.83
2017-12-22T00:14:28.122Z,-0.85
2017-12-22T00:16:54.663Z,-0.83
2017-12-22T00:19:21.073Z,-0.76
2017-12-22T00:21:47.423Z,-0.72
2017-12-22T00:24:13.817Z,-0.63
2017-12-22T00:26:40.146Z,-0.65
2017-12-22T00:29:06.498Z,-0.74
2017-12-22T00:31:32.925Z,-0.63
2017-12-22T00:33:59.311Z,-0.63
2017-12-22T00:36:25.719Z,-0.68
2017-12-22T00:38:52.113Z,-0.66
2017-12-22T00:41:18.521Z,-0.58
2017-12-22T00:43:44.892Z,-0.50
2017-12-22T00:46:11.280Z,-0.43
2017-12-22T00:48:37.600Z,-0.48
2017-12-22T00:51:03.941Z,-0.61
2017-12-22T00:53:30.305Z,-0.62
2017-12-22T00:55:56.655Z,-0.59
2017-12-22T00:58:23.026Z,-0.61
2017-12-22T01:00:49.421Z,-0.52
2017-12-22T01:03:15.790Z,-0.43
2017-12-22T01:05:42.134Z,-0.39
2017-12-22T01:08:08.542Z,-0.37
2017-12-22T01:10:34.889Z,-0.31
2017-12-22T01:13:01.233Z,-0.47
2017-12-22T01:15:33.721Z,-0.61
2017-12-22T01:18:06.128Z,-0.70
2017-12-22T01:20:32.456Z,-0.76
2017-12-22T01:22:58.837Z,-0.66
2017-12-22T01:25:25.168Z,-0.62
2017-12-22T01:27:51.497Z,-0.77
2017-12-22T01:30:17.874Z,-0.87
2017-12-22T01:32:44.205Z,-0.95
2017-12-22T01:35:10.581Z,-0.95
2017-12-22T01:37:36.946Z,-0.96
2017-12-22T01:40:03.309Z,-0.96
2017-12-22T01:42:29.657Z,-0.98
2017-12-22T01:44:56.020Z,-1.04
2017-12-22T01:47:22.357Z,-1.04
2017-12-22T01:49:48.701Z,-0.95
2017-12-22T01:52:15.089Z,-0.81
2017-12-22T01:54:41.413Z,-0.61
2017-12-22T01:57:07.731Z,-0.47
2017-12-22T01:59:34.094Z,-0.37
2017-12-22T02:02:00.449Z,-0.30
2017-12-22T02:04:26.773Z,-0.19
2017-12-22T02:06:53.198Z,-0.20
2017-12-22T02:09:19.533Z,-0.34
2017-12-22T02:11:45.854Z,-0.50
2017-12-22T02:14:12.287Z,-0.45
2017-12-22T02:16:38.624Z,-0.36
2017-12-22T02:19:05.005Z,-0.31
2017-12-22T02:21:31.379Z,-0.25
2017-12-22T02:23:57.708Z,-0.18
2017-12-22T02:26:24.056Z,-0.20
2017-12-22T02:28:50.433Z,-0.18
2017-12-22T02:31:16.806Z,-0.10
2017-12-22T02:33:43.138Z,0.08
2017-12-22T02:36:09.501Z,0.07
2017-12-22T02:38:35.812Z,-0.02
2017-12-22T02:41:02.150Z,-0.12
2017-12-22T02:43:28.653Z,-0.23
2017-12-22T02:45:54.973Z,-0.31
2017-12-22T02:48:21.289Z,-0.39
2017-12-22T02:50:47.674Z,-0.37
2017-12-22T02:53:14.050Z,-0.37
2017-12-22T02:55:40.401Z,-0.31
2017-12-22T02:58:06.753Z,-0.26
2017-12-22T03:00:33.091Z,-0.19
2017-12-22T03:02:59.473Z,-0.15
2017-12-22T03:05:25.833Z,-0.14
2017-12-22T03:07:52.171Z,-0.12
2017-12-22T03:10:18.510Z,-0.15
2017-12-22T03:12:44.869Z,-0.17
2017-12-22T03:15:11.229Z,-0.14
2017-12-22T03:17:37.566Z,-0.14
2017-12-22T03:20:03.921Z,-0.07
2017-12-22T03:22:30.248Z,-0.03
2017-12-22T03:24:56.596Z,-0.11
2017-12-22T03:27:22.957Z,-0.10
2017-12-22T03:29:49.281Z,-0.04
2017-12-22T03:32:15.626Z,-0.03
2017-12-22T03:34:41.974Z,0.04
2017-12-22T03:37:08.305Z,0.08
2017-12-22T03:39:34.662Z,0.09
2017-12-22T03:42:01.024Z,-0.01
2017-12-22T03:44:27.365Z,-0.26
2017-12-22T03:46:53.692Z,-0.39
2017-12-22T03:49:20.041Z,-0.33
2017-12-22T03:51:46.352Z,-0.22
2017-12-22T03:54:12.726Z,-0.06
2017-12-22T03:56:39.101Z,0.06
2017-12-22T03:59:05.433Z,0.25
2017-12-22T04:01:31.757Z,0.32
2017-12-22T04:03:58.292Z,0.28
2017-12-22T04:06:24.619Z,0.31
2017-12-22T04:08:50.937Z,0.22
2017-12-22T04:11:17.291Z,-0.06
2017-12-22T04:13:43.635Z,-0.08
2017-12-22T04:16:09.953Z,-0.05
2017-12-22T04:18:36.313Z,0.01
2017-12-22T04:21:02.628Z,0.19
2017-12-22T04:23:28.949Z,0.32
2017-12-22T04:25:55.324Z,0.27
2017-12-22T04:28:21.661Z,0.24
2017-12-22T04:30:47.983Z,0.20
2017-12-22T04:33:14.380Z,0.13
2017-12-22T04:35:40.709Z,-0.06
2017-12-22T04:38:07.044Z,-0.08
2017-12-22T04:40:33.397Z,0.00
2017-12-22T04:42:59.736Z,0.06
2017-12-22T04:45:26.085Z,-0.26
2017-12-22T04:47:52.465Z,-0.11
2017-12-22T04:50:18.799Z,0.10
2017-12-22T04:52:45.129Z,0.02
2017-12-22T04:55:11.489Z,0.01
2017-12-22T04:57:37.862Z,0.11
2017-12-22T05:00:04.192Z,-0.13
2017-12-22T05:02:30.576Z,-0.05
2017-12-22T05:04:56.888Z,-0.13
2017-12-22T05:07:23.221Z,-0.28
2017-12-22T05:09:49.565Z,-0.07
2017-12-22T05:12:15.881Z,-0.01
2017-12-22T05:14:42.217Z,0.07
2017-12-22T05:17:08.589Z,-0.04
2017-12-22T05:19:34.917Z,-0.07
2017-12-22T05:22:01.254Z,-0.12
2017-12-22T05:24:27.634Z,-0.15
2017-12-22T05:26:53.973Z,-0.11
2017-12-22T05:29:20.293Z,-0.10
2017-12-22T05:31:46.644Z,0.02
2017-12-22T05:34:12.964Z,0.04
2017-12-22T05:36:39.292Z,0.14
2017-12-22T05:39:05.660Z,0.23
2017-12-22T05:41:31.989Z,0.30
2017-12-22T05:43:58.338Z,0.41
2017-12-22T05:46:24.697Z,0.47
2017-12-22T05:48:51.034Z,0.55
2017-12-22T05:51:17.363Z,0.67
2017-12-22T05:53:43.725Z,0.55
2017-12-22T05:56:10.284Z,0.61
2017-12-22T05:58:36.633Z,0.83
2017-12-22T06:01:03.005Z,0.69
2017-12-22T06:03:29.341Z,0.59
2017-12-22T06:05:55.678Z,0.73
2017-12-22T06:08:22.189Z,0.83
2017-12-22T06:10:48.525Z,0.77
2017-12-22T06:13:14.861Z,0.69
2017-12-22T06:15:41.217Z,0.84
2017-12-22T06:18:07.548Z,0.85
2017-12-22T06:20:33.929Z,0.77
2017-12-22T06:23:00.297Z,0.55
2017-12-22T06:25:26.632Z,0.25
2017-12-22T06:27:53.006Z,0.23
2017-12-22T06:30:19.393Z,0.25
2017-12-22T06:32:45.773Z,0.22
2017-12-22T06:35:12.203Z,0.08
2017-12-22T06:37:38.578Z,0.01
2017-12-22T06:40:04.905Z,-0.02
2017-12-22T06:42:31.245Z,-0.04
2017-12-22T06:44:57.621Z,-0.12
2017-12-22T06:47:23.949Z,-0.01
2017-12-22T06:49:50.289Z,0.02
2017-12-22T06:52:16.684Z,0.04
2017-12-22T06:54:43.030Z,-0.04
2017-12-22T06:57:09.382Z,0.06
2017-12-22T06:59:35.749Z,0.22
2017-12-22T07:02:02.094Z,0.30
2017-12-22T07:04:28.433Z,0.34
2017-12-22T07:06:54.781Z,0.40
2017-12-22T07:09:21.110Z,0.40
2017-12-22T07:11:47.424Z,0.40
2017-12-22T07:14:13.772Z,0.43
2017-12-22T07:16:40.085Z,0.32
2017-12-22T07:19:06.410Z,0.31
2017-12-22T07:21:32.785Z,0.47
2017-12-22T07:23:59.125Z,0.70
2017-12-22T07:26:25.505Z,0.76
2017-12-22T07:28:51.888Z,0.82
2017-12-22T07:31:18.237Z,0.69
2017-12-22T07:33:44.605Z,0.68
2017-12-22T07:36:10.976Z,0.47
2017-12-22T07:38:37.301Z,0.10
2017-12-22T07:41:03.638Z,0.04
2017-12-22T07:43:30.105Z,0.18
2017-12-22T07:45:56.449Z,0.35
2017-12-22T07:48:22.784Z,0.26
2017-12-22T07:50:49.154Z,0.28
2017-12-22T07:53:15.498Z,0.34
2017-12-22T07:55:41.837Z,0.45
2017-12-22T07:58:08.261Z,0.55
2017-12-22T08:00:34.594Z,0.78
2017-12-22T08:03:00.982Z,0.84
2017-12-22T08:05:27.417Z,0.75
2017-12-22T08:07:53.754Z,0.61
2017-12-22T08:10:20.112Z,0.72
2017-12-22T08:12:46.500Z,0.24
2017-12-22T08:15:12.877Z,0.40
2017-12-22T08:17:39.214Z,0.37
2017-12-22T08:20:05.609Z,0.51
2017-12-22T08:22:31.986Z,0.24
2017-12-22T08:24:58.353Z,0.26
2017-12-22T08:27:25.062Z,0.47
2017-12-22T08:29:51.610Z,0.56
2017-12-22T08:32:17.966Z,0.39
2017-12-22T08:34:44.341Z,0.33
2017-12-22T08:37:10.685Z,0.45
2017-12-22T08:39:37.126Z,0.67
2017-12-22T08:42:03.506Z,0.66
2017-12-22T08:44:30.009Z,0.93
2017-12-22T08:46:56.357Z,1.16
2017-12-22T08:49:22.762Z,1.09
2017-12-22T08:51:49.153Z,1.04
2017-12-22T08:54:15.502Z,0.56
2017-12-22T08:56:42.284Z,0.45
2017-12-22T08:59:08.812Z,0.32
2017-12-22T09:01:35.201Z,0.37
2017-12-22T09:04:01.589Z,0.74
2017-12-22T09:06:27.946Z,0.67
2017-12-22T09:08:54.277Z,0.87
2017-12-22T09:11:20.641Z,0.77
2017-12-22T09:13:47.045Z,1.05
2017-12-22T09:16:13.405Z,0.82
2017-12-22T09:18:39.843Z,0.77
2017-12-22T09:21:06.218Z,0.76
2017-12-22T09:23:32.560Z,0.99
2017-12-22T09:25:58.941Z,0.84
2017-12-22T09:28:25.288Z,0.84
2017-12-22T09:30:51.711Z,0.87
2017-12-22T09:33:18.068Z,0.73
2017-12-22T09:35:44.405Z,0.75
2017-12-22T09:38:11.534Z,0.83
2017-12-22T09:40:37.901Z,0.95
2017-12-22T09:43:04.246Z,0.92
2017-12-22T09:45:30.598Z,1.15
2017-12-22T09:47:57.044Z,1.28
2017-12-22T09:50:23.396Z,1.30
2017-12-22T09:52:49.758Z,1.45
2017-12-22T09:55:16.165Z,1.71
2017-12-22T09:57:42.513Z,2.08
2017-12-22T10:00:08.904Z,2.26
2017-12-22T10:02:35.297Z,2.33
2017-12-22T10:05:01.665Z,2.58
2017-12-22T10:07:28.026Z,2.75
2017-12-22T10:09:54.504Z,2.73
2017-12-22T10:12:20.864Z,2.89
2017-12-22T10:14:47.230Z,2.93
2017-12-22T10:17:13.635Z,2.55
2017-12-22T10:19:39.979Z,2.14
2017-12-22T10:22:06.386Z,1.72
2017-12-22T10:24:32.817Z,1.67
2017-12-22T10:26:59.178Z,1.46
2017-12-22T10:29:25.529Z,1.72
2017-12-22T10:31:51.961Z,1.79
2017-12-22T10:34:18.334Z,1.66
2017-12-22T10:36:44.701Z,1.52
2017-12-22T10:39:11.085Z,1.66
2017-12-22T10:41:37.465Z,1.85
2017-12-22T10:44:03.847Z,1.86
2017-12-22T10:46:30.253Z,1.99
2017-12-22T10:48:56.674Z,2.13
2017-12-22T10:51:23.050Z,2.17
2017-12-22T10:53:49.454Z,2.02
2017-12-22T10:56:15.793Z,2.24
2017-12-22T10:58:42.137Z,2.47
2017-12-22T11:01:08.546Z,2.54
2017-12-22T11:03:35.141Z,2.36
2017-12-22T11:06:01.494Z,2.58
2017-12-22T11:08:27.908Z,2.49
2017-12-22T11:10:54.286Z,2.67
2017-12-22T11:13:20.636Z,2.57
2017-12-22T11:15:47.037Z,2.17
2017-12-22T11:18:13.428Z,2.23
2017-12-22T11:20:39.806Z,1.94
2017-12-22T11:23:06.236Z,2.12
2017-12-22T11:25:32.601Z,2.38
2017-12-22T11:27:59.001Z,2.40
2017-12-22T11:30:25.495Z,2.24
2017-12-22T11:32:51.877Z,2.20
2017-12-22T11:35:18.317Z,2.49
2017-12-22T11:37:44.744Z,2.74
2017-12-22T11:40:11.125Z,2.82
2017-12-22T11:42:37.464Z,2.81
2017-12-22T11:45:03.938Z,2.43
2017-12-22T11:47:30.274Z,2.44
2017-12-22T11:49:56.629Z,2.46
2017-12-22T11:52:23.065Z,2.45
2017-12-22T11:54:49.517Z,2.61
2017-12-22T11:57:15.882Z,2.58
2017-12-22T11:59:42.541Z,2.57
2017-12-22T12:02:08.949Z,2.65
2017-12-22T12:04:35.313Z,2.58
2017-12-22T12:07:01.890Z,2.46
2017-12-22T12:09:28.276Z,1.74
2017-12-22T12:11:54.670Z,1.56
2017-12-22T12:14:21.069Z,1.78
2017-12-22T12:16:47.416Z,1.72
2017-12-22T12:19:14.318Z,1.49
2017-12-22T12:21:41.078Z,1.63
2017-12-22T12:24:07.513Z,2.10
2017-12-22T12:26:33.909Z,2.05
2017-12-22T12:29:01.561Z,1.57
2017-12-22T12:31:31.199Z,1.95
2017-12-22T12:33:57.546Z,1.97
2017-12-22T12:36:23.978Z,2.17
2017-12-22T12:38:50.340Z,1.85
2017-12-22T12:41:16.704Z,2.17
2017-12-22T12:43:43.098Z,2.18
2017-12-22T12:46:09.462Z,2.31
2017-12-22T12:48:36.191Z,2.21
2017-12-22T12:51:02.761Z,2.50
2017-12-22T12:53:29.145Z,2.56
2017-12-22T12:55:55.594Z,2.59
2017-12-22T12:58:22.026Z,2.74
2017-12-22T13:00:48.389Z,2.89
2017-12-22T13:03:14.850Z,2.92
2017-12-22T13:05:41.326Z,2.92
2017-12-22T13:08:07.665Z,2.93
2017-12-22T13:10:34.148Z,2.94
2017-12-22T13:13:00.579Z,2.88
2017-12-22T13:15:26.924Z,2.74
2017-12-22T13:17:53.325Z,2.59
2017-12-22T13:20:19.697Z,2.53
2017-12-22T13:22:46.201Z,2.56
2017-12-22T13:25:12.794Z,2.46
2017-12-22T13:27:39.226Z,2.12
2017-12-22T13:30:05.613Z,2.26
2017-12-22T13:32:32.016Z,2.43
2017-12-22T13:34:58.397Z,2.77
2017-12-22T13:37:24.770Z,2.69
2017-12-22T13:39:51.112Z,2.40
2017-12-22T13:42:17.552Z,2.41
2017-12-22T13:44:43.909Z,2.58
2017-12-22T13:47:10.405Z,2.56
2017-12-22T13:49:36.816Z,2.65
2017-12-22T13:52:03.229Z,2.33
2017-12-22T13:54:29.601Z,2.27
2017-12-22T13:56:56.042Z,2.39
2017-12-22T13:59:22.381Z,2.46
2017-12-22T14:01:48.985Z,2.65
2017-12-22T14:04:15.441Z,2.76
2017-12-22T14:06:41.818Z,2.68
2017-12-22T14:09:08.179Z,2.57
2017-12-22T14:11:34.571Z,2.54
2017-12-22T14:14:00.928Z,2.57
2017-12-22T14:16:27.306Z,2.60
2017-12-22T14:18:53.809Z,2.48
2017-12-22T14:21:20.184Z,2.56
2017-12-22T14:23:46.526Z,2.52
2017-12-22T14:26:12.960Z,2.58
2017-12-22T14:28:39.334Z,2.56
2017-12-22T14:31:05.704Z,2.36
2017-12-22T14:33:32.108Z,2.39
2017-12-22T14:35:58.497Z,2.38
2017-12-22T14:38:24.847Z,2.17
2017-12-22T14:40:51.269Z,2.16
2017-12-22T14:43:17.630Z,2.21
2017-12-22T14:45:44.076Z,2.41
2017-12-22T14:48:10.474Z,2.53
2017-12-22T14:50:36.836Z,2.51
2017-12-22T14:53:03.357Z,2.50
2017-12-22T14:55:29.731Z,2.48
2017-12-22T14:57:56.086Z,2.42
2017-12-22T15:00:22.490Z,2.39
2017-12-22T15:02:48.939Z,1.96
2017-12-22T15:05:15.305Z,1.88
2017-12-22T15:07:41.862Z,1.99
2017-12-22T15:10:08.313Z,2.06
2017-12-22T15:12:34.698Z,2.11
2017-12-22T15:15:01.070Z,2.02
2017-12-22T15:17:27.653Z,2.00
2017-12-22T15:19:54.026Z,2.14
2017-12-22T15:22:20.522Z,2.16
2017-12-22T15:24:46.943Z,2.28
2017-12-22T15:27:13.302Z,2.38
2017-12-22T15:29:39.670Z,2.50
2017-12-22T15:32:06.067Z,2.51
2017-12-22T15:34:32.497Z,2.49
2017-12-22T15:36:58.840Z,2.40
2017-12-22T15:39:25.231Z,2.43
2017-12-22T15:41:51.598Z,2.28
2017-12-22T15:44:17.949Z,2.29
2017-12-22T15:46:44.340Z,2.26
2017-12-22T15:49:10.815Z,2.17
2017-12-22T15:51:37.198Z,2.03
2017-12-22T15:54:03.618Z,1.90
2017-12-22T15:56:29.966Z,1.91
2017-12-22T15:58:56.323Z,2.11
2017-12-22T16:01:22.719Z,2.13
2017-12-22T16:03:49.081Z,2.03
2017-12-22T16:06:15.458Z,1.99
2017-12-22T16:08:41.973Z,2.14
2017-12-22T16:11:09.346Z,2.13
2017-12-22T16:13:35.714Z,2.20
2017-12-22T16:16:02.118Z,2.22
2017-12-22T16:18:28.461Z,1.96
2017-12-22T16:20:54.837Z,2.00
2017-12-22T16:23:21.221Z,2.08
2017-12-22T16:25:47.570Z,2.07
2017-12-22T16:28:14.814Z,2.04
2017-12-22T16:30:41.239Z,2.13
2017-12-22T16:33:07.591Z,2.16
2017-12-22T16:35:33.962Z,1.80
2017-12-22T16:38:00.374Z,1.76
2017-12-22T16:40:27.673Z,1.88
2017-12-22T16:42:54.018Z,2.11
2017-12-22T16:45:20.403Z,2.40
2017-12-22T16:47:47.018Z,2.66
2017-12-22T16:50:13.396Z,2.93
2017-12-22T16:52:39.797Z,2.88
2017-12-22T16:55:06.232Z,2.60
2017-12-22T16:57:32.656Z,2.50
2017-12-22T16:59:59.103Z,2.35
2017-12-22T17:02:26.333Z,2.20
2017-12-22T17:04:52.709Z,2.12
2017-12-22T17:07:19.174Z,1.88
2017-12-22T17:09:46.959Z,1.79
2017-12-22T17:12:13.399Z,1.61
2017-12-22T17:14:39.861Z,1.69
2017-12-22T17:17:06.266Z,1.39
2017-12-22T17:19:32.793Z,1.54
2017-12-22T17:21:59.197Z,1.68
2017-12-22T17:24:25.687Z,1.78
2017-12-22T17:26:52.105Z,1.83
2017-12-22T17:29:18.552Z,1.62
2017-12-22T17:31:46.421Z,1.38
2017-12-22T17:34:13.684Z,1.35
2017-12-22T17:36:41.084Z,1.45
2017-12-22T17:39:07.475Z,1.49
2017-12-22T17:41:34.522Z,1.57
2017-12-22T17:44:00.998Z,1.70
2017-12-22T17:46:27.468Z,1.68
2017-12-22T17:48:54.209Z,1.54
2017-12-22T17:51:20.704Z,1.71
2017-12-22T17:53:48.050Z,1.73
2017-12-22T17:56:14.643Z,1.78
2017-12-22T17:58:41.131Z,1.69
2017-12-22T18:01:07.624Z,1.73
2017-12-22T18:03:34.014Z,1.68
2017-12-22T18:06:00.530Z,1.74
2017-12-22T18:08:26.875Z,1.69
2017-12-22T18:10:53.266Z,1.84
2017-12-22T18:13:19.615Z,1.73
2017-12-22T18:15:45.973Z,1.71
2017-12-22T18:18:12.211Z,1.73
2017-12-22T18:20:38.510Z,1.63
2017-12-22T18:23:04.830Z,1.63
2017-12-22T18:25:31.995Z,1.88
2017-12-22T18:27:58.438Z,1.91
2017-12-22T18:30:24.874Z,1.95
2017-12-22T18:32:51.299Z,2.01
2017-12-22T18:35:17.834Z,1.95
2017-12-22T18:37:48.018Z,2.02
2017-12-22T18:40:14.390Z,2.12
2017-12-22T18:42:41.836Z,2.05
2017-12-22T18:45:08.239Z,2.03
2017-12-22T18:47:34.656Z,1.88
2017-12-22T18:50:01.147Z,1.89
2017-12-22T18:52:27.558Z,2.02
2017-12-22T18:54:54.005Z,1.90
2017-12-22T18:57:20.543Z,1.98
2017-12-22T18:59:47.112Z,1.87
2017-12-22T19:02:13.518Z,1.91
2017-12-22T19:04:40.766Z,1.97
2017-12-22T19:07:08.131Z,1.92
2017-12-22T19:09:34.621Z,2.04
2017-12-22T19:12:01.533Z,2.03
2017-12-22T19:14:27.946Z,1.70
2017-12-22T19:16:54.326Z,1.94
2017-12-22T19:19:22.835Z,2.16
2017-12-22T19:21:49.299Z,2.16
2017-12-22T19:24:15.697Z,1.99
2017-12-22T19:26:42.145Z,1.90
2017-12-22T19:29:09.077Z,1.37
2017-12-22T19:31:35.534Z,1.61
2017-12-22T19:34:01.998Z,1.51
2017-12-22T19:36:28.439Z,1.19
2017-12-22T19:38:54.831Z,1.32
2017-12-22T19:41:22.054Z,1.25
2017-12-22T19:43:48.526Z,1.35
2017-12-22T19:46:15.213Z,1.30
2017-12-22T19:48:41.691Z,1.32
2017-12-22T19:51:08.472Z,1.33
2017-12-22T19:53:34.885Z,1.56
2017-12-22T19:56:01.330Z,1.51
2017-12-22T19:58:27.747Z,1.42
2017-12-22T20:00:55.164Z,1.55
2017-12-22T20:03:26.615Z,1.57
2017-12-22T20:05:53.026Z,1.51
2017-12-22T20:08:19.419Z,1.56
2017-12-22T20:10:45.902Z,1.49
2017-12-22T20:13:12.398Z,1.24
2017-12-22T20:15:38.816Z,1.14
2017-12-22T20:18:05.245Z,1.23
2017-12-22T20:20:31.715Z,1.16
2017-12-22T20:22:58.241Z,1.25
2017-12-22T20:25:25.292Z,1.22
2017-12-22T20:27:51.693Z,1.24
2017-12-22T20:30:18.087Z,1.21
2017-12-22T20:32:44.722Z,1.35
2017-12-22T20:35:11.534Z,1.31
2017-12-22T20:37:37.898Z,1.10
2017-12-22T20:40:04.336Z,1.14
2017-12-22T20:42:31.658Z,1.04
2017-12-22T20:44:58.234Z,1.17
2017-12-22T20:47:24.746Z,1.04
2017-12-22T20:49:51.154Z,1.11
2017-12-22T20:52:17.587Z,1.12
2017-12-22T20:54:44.022Z,1.13
2017-12-22T20:57:11.069Z,1.18
2017-12-22T20:59:37.527Z,1.11
2017-12-22T21:02:03.960Z,1.17
2017-12-22T21:04:30.469Z,1.15
2017-12-22T21:06:56.934Z,1.03
2017-12-22T21:09:23.355Z,1.08
2017-12-22T21:11:49.742Z,1.16
2017-12-22T21:14:16.182Z,1.13
2017-12-22T21:16:42.641Z,1.07
2017-12-22T21:19:09.047Z,0.79
2017-12-22T21:21:35.457Z,0.71
2017-12-22T21:24:01.859Z,0.79
2017-12-22T21:26:28.266Z,0.69
2017-12-22T21:28:54.684Z,0.64
2017-12-22T21:31:21.146Z,0.64
2017-12-22T21:33:47.488Z,0.71
2017-12-22T21:36:13.849Z,0.57
2017-12-22T21:38:40.234Z,0.74
2017-12-22T21:41:06.613Z,0.82
2017-12-22T21:43:33.011Z,0.34
2017-12-22T21:45:59.469Z,0.56
2017-12-22T21:48:25.833Z,0.78
2017-12-22T21:50:52.265Z,0.61
2017-12-22T21:53:18.702Z,0.68
2017-12-22T21:55:45.107Z,0.68
2017-12-22T21:58:11.511Z,0.71
2017-12-22T22:00:37.945Z,0.81
2017-12-22T22:03:04.353Z,0.52
2017-12-22T22:05:30.717Z,0.86
2017-12-22T22:07:57.195Z,0.93
2017-12-22T22:10:23.580Z,0.96
2017-12-22T22:12:49.989Z,1.05
2017-12-22T22:15:16.387Z,0.71
2017-12-22T22:17:42.802Z,0.89
2017-12-22T22:20:09.193Z,0.84
2017-12-22T22:22:35.596Z,0.89
2017-12-22T22:25:01.994Z,0.94
2017-12-22T22:27:28.405Z,1.03
2017-12-22T22:29:54.789Z,1.29
2017-12-22T22:32:21.177Z,1.13
2017-12-22T22:34:47.537Z,1.11
2017-12-22T22:37:13.953Z,0.95
2017-12-22T22:39:40.333Z,1.15
2017-12-22T22:42:06.741Z,1.15
2017-12-22T22:44:33.216Z,1.19
2017-12-22T22:46:59.608Z,1.20
2017-12-22T22:49:26.022Z,1.28
2017-12-22T22:51:52.506Z,1.42
2017-12-22T22:54:18.869Z,1.31
2017-12-22T22:56:45.244Z,1.23
2017-12-22T22:59:11.661Z,1.48
2017-12-22T23:01:38.069Z,1.32
2017-12-22T23:04:04.461Z,1.17
2017-12-22T23:06:30.875Z,1.32
2017-12-22T23:08:57.241Z,1.18
2017-12-22T23:11:23.653Z,1.44
2017-12-22T23:13:50.140Z,1.09
2017-12-22T23:16:16.486Z,1.06
2017-12-22T23:18:42.870Z,0.65
2017-12-22T23:21:09.295Z,0.95
2017-12-22T23:23:35.680Z,1.00
2017-12-22T23:26:02.069Z,1.11
2017-12-22T23:28:28.493Z,0.92
2017-12-22T23:30:54.886Z,1.03
2017-12-22T23:33:21.257Z,1.23
2017-12-22T23:35:47.714Z,1.30
2017-12-22T23:38:14.096Z,1.34
2017-12-22T23:40:40.517Z,1.11
2017-12-22T23:43:06.946Z,1.20
2017-12-22T23:45:33.381Z,1.21
2017-12-22T23:47:59.755Z,1.22
2017-12-22T23:50:26.213Z,1.35
2017-12-22T23:52:52.621Z,1.32
2017-12-22T23:55:18.998Z,1.37
2017-12-22T23:57:45.456Z,1.46
